• Join FlightAware (Why Join?)
  • Login
  • US Flag 
05:48AM EDT


 

Airport Tracker/Info


-or-


 

Live Flight TrackerFlight Track Log ✈ N680AN ✈ 30-Apr-2013 ✈ KDFW - KMIA

Flight Track Log - Related Links

Times and Time Zones

All times are in EDT time to prevent confusion due to time zone crossing. See the N680AN flight status page for this flight to view local times or setup timezone preferences in your user account.

Time Position Orientation Groundspeed Altitude Reporting Facility
EDT Latitude Longitude Course Direction KTS MPH feet Rate Location/Type
05:29PM 32.8833 -97.0333 65° Northeast 160 184 1,500  Level Dallas / Fort Worth TRACON
05:30PM 32.8500 -97.0333 180° South 198 228 2,600 1,920 Climbing Dallas / Fort Worth TRACON
05:31PM 32.7833 -97.0000 157° South 257 296 5,000 2,400 Climbing Dallas / Fort Worth TRACON
05:32PM 32.6847 -96.7960 68° East  Level FlightAware Approximate
05:32PM 32.7667 -96.9167 103° East 280 322 7,400  Level Dallas / Fort Worth TRACON
05:33PM 32.7304 -96.6591 68° East  Level FlightAware Approximate
05:34PM 32.7772 -96.5227 65° Northeast  Level FlightAware Approximate
05:35PM 32.8288 -96.3886 65° Northeast  Level FlightAware Approximate
05:35PM 32.8000 -96.7017 79° East 291 335 11,600  Level Fort Worth Center
05:36PM 32.8222 -96.5828 77° East 348 400 13,700 1,980 Climbing Fort Worth Center
05:37PM 32.8403 -96.4739 79° East 363 418 15,600 2,040 Climbing Fort Worth Center
05:38PM 32.8644 -96.3400 78° East 375 432 17,800 2,040 Climbing Fort Worth Center
05:39PM 32.8675 -96.2239 88° East 382 440 19,700 1,860 Climbing Fort Worth Center
05:40PM 32.8703 -96.0828 89° East 387 445 21,600 1,560 Climbing Fort Worth Center
05:41PM 32.8708 -95.9617 90° East 387 445 22,900 1,440 Climbing Fort Worth Center
05:42PM 32.8733 -95.8081 89° East 406 467 24,500 1,500 Climbing Fort Worth Center
05:43PM 32.8778 -95.6819 88° East 422 486 26,000 1,440 Climbing Fort Worth Center
05:44PM 32.8736 -95.5361 92° East 433 498 27,400 1,440 Climbing Fort Worth Center
05:45PM 32.8775 -95.3850 88° East 439 505 28,900 1,440 Climbing Fort Worth Center
05:46PM 32.8958 -95.2314 82° East 452 520 30,300 1,680 Climbing Fort Worth Center
05:47PM 32.9203 -95.0797 79° East 457 526 32,300 1,800 Climbing Fort Worth Center
05:48PM 32.9447 -94.9306 79° East 462 532 33,900 1,380 Climbing Fort Worth Center
05:49PM 32.9686 -94.7789 79° East 462 532 35,100 1,080 Climbing Fort Worth Center
05:50PM 32.9925 -94.6294 79° East 462 532 36,100 900 Climbing Fort Worth Center
05:51PM 33.0161 -94.4728 80° East 472 543 37,000 420 Climbing Fort Worth Center
05:52PM 33.0375 -94.3183 81° East 472 543 37,000  Level Fort Worth Center
05:53PM 33.0606 -94.1589 80° East 472 543 37,000  Level Fort Worth Center
05:54PM 33.0817 -94.0069 81° East 472 543 37,000  Level Fort Worth Center
05:55PM 33.1061 -93.8350 80° East 467 537 37,000  Level Fort Worth Center
05:56PM 33.1286 -93.6753 80° East 467 537 37,000  Level Fort Worth Center
05:57PM 33.1511 -93.5231 80° East 467 537 37,000  Level Fort Worth Center
05:58PM 33.1733 -93.3658 80° East 467 537 37,000  Level Fort Worth Center
05:59PM 33.1931 -93.2108 81° East 467 537 37,000  Level Fort Worth Center
06:00PM 33.2150 -93.0536 80° East 467 537 37,000  Level Fort Worth Center
06:01PM 33.2386 -92.8958 80° East 467 537 37,000  Level Fort Worth Center
06:02PM 33.2536 -92.7386 83° East 467 537 37,000  Level Fort Worth Center
06:04PM 33.1839 -92.3803 103° East 445 512 37,000  Level Memphis Center
06:05PM 33.1528 -92.2331 104° East 450 518 37,000  Level Memphis Center
06:06PM 33.1236 -92.0861 103° East 457 526 37,000  Level Memphis Center
06:07PM 33.0836 -91.9392 108° East 457 526 37,000  Level Memphis Center
06:08PM 33.0542 -91.7947 104° East 457 526 37,000  Level Memphis Center
06:09PM 33.0264 -91.6433 102° East 456 525 37,000  Level Memphis Center
06:10PM 32.9925 -91.4992 106° East 456 525 37,000  Level Memphis Center
06:11PM 32.9625 -91.3525 104° East 456 525 37,000  Level Memphis Center
06:12PM 32.9319 -91.2211 105° East 456 525 37,000  Level Memphis Center
06:13PM 32.9036 -91.0725 103° East 451 519 37,000  Level Memphis Center
06:14PM 32.8689 -90.9261 106° East 456 525 37,000  Level Memphis Center
06:15PM 32.8361 -90.7775 105° East 456 525 37,000  Level Memphis Center
06:16PM 32.8031 -90.6317 105° East 456 525 37,000  Level Memphis Center
06:17PM 32.7700 -90.4858 105° East 456 525 37,000  Level Memphis Center
06:18PM 32.7367 -90.3375 105° East 456 525 37,000  Level Memphis Center
06:19PM 32.7072 -90.1844 103° East 456 525 37,000  Level Memphis Center
06:20PM 32.6964 -90.0314 95° East 462 532 37,000  Level Memphis Center
06:21PM 32.6875 -89.8539 93° East 478 550 37,000  Level Memphis Center
06:22PM 32.6806 -89.6958 93° East 478 550 37,000  Level Memphis Center
06:23PM 32.6733 -89.5356 93° East 478 550 37,000 60 Level Memphis Center
06:24PM 32.6597 -89.3778 96° East 478 550 37,200 420 Climbing Memphis Center
06:25PM 32.6417 -89.2225 98° East 478 550 37,900 540 Climbing Memphis Center
06:26PM 32.6192 -89.0647 100° East 485 558 38,300 480 Climbing Memphis Center
06:27PM 32.5861 -88.9075 104° East 485 558 38,900 300 Climbing Memphis Center
06:28PM 32.5383 -88.7581 111° Southeast 485 558 39,000  Climbing Memphis Center
06:30PM 32.4067 -88.4522 117° Southeast 463 533 39,000  Level Atlanta Center
06:31PM 32.3486 -88.3167 117° Southeast 468 539 39,000  Level Atlanta Center
06:32PM 32.2908 -88.1789 116° Southeast 468 539 39,000  Level Atlanta Center
06:33PM 32.2328 -88.0436 117° Southeast 468 539 39,000  Level Atlanta Center
06:34PM 32.1744 -87.9058 117° Southeast 468 539 39,000  Level Atlanta Center
06:35PM 32.1161 -87.7661 116° Southeast 468 539 39,000  Level Atlanta Center
06:36PM 32.0494 -87.6261 119° Southeast 473 544 39,000  Level Atlanta Center
06:38PM 31.9392 -87.3675 117° Southeast 494 568 39,000  Level Jacksonville Center
06:39PM 31.8769 -87.2422 120° Southeast 494 568 39,000  Level Jacksonville Center
06:40PM 31.8169 -87.1025 117° Southeast 489 563 39,000  Level Jacksonville Center
06:41PM 31.7483 -86.9675 121° Southeast 489 563 39,000  Level Jacksonville Center
06:42PM 31.6639 -86.8589 132° Southeast 472 543 39,000  Level Jacksonville Center
06:43PM 31.5714 -86.7500 135° Southeast 460 529 39,000  Level Jacksonville Center
06:44PM 31.4783 -86.6464 136° Southeast 460 529 39,000  Level Jacksonville Center
06:45PM 31.3856 -86.5403 136° Southeast 467 537 39,000  Level Jacksonville Center
06:46PM 31.2967 -86.4347 135° Southeast 462 532 39,000  Level Jacksonville Center
06:47PM 31.2014 -86.3244 135° Southeast 467 537 39,000  Level Jacksonville Center
06:48PM 31.1125 -86.2192 135° Southeast 462 532 39,000  Level Jacksonville Center
06:49PM 31.0192 -86.1117 135° Southeast 462 532 39,000  Level Jacksonville Center
06:50PM 30.9278 -86.0044 135° Southeast 467 537 39,000  Level Jacksonville Center
06:51PM 30.8364 -85.9022 136° Southeast 462 532 39,000  Level Jacksonville Center
06:52PM 30.7428 -85.7953 136° Southeast 462 532 39,000  Level Jacksonville Center
06:53PM 30.6514 -85.6889 135° Southeast 462 532 39,000  Level Jacksonville Center
06:54PM 30.5556 -85.5822 136° Southeast 467 537 39,000  Level Jacksonville Center
06:55PM 30.4636 -85.4783 136° Southeast 467 537 39,000  Level Jacksonville Center
06:56PM 30.3678 -85.3722 136° Southeast 467 537 39,000  Level Jacksonville Center
06:57PM 30.2758 -85.2667 135° Southeast 467 537 39,000  Level Jacksonville Center
06:58PM 30.1817 -85.1633 136° Southeast 467 537 39,000  Level Jacksonville Center
06:59PM 30.0875 -85.0531 135° Southeast 467 537 39,000  Level Jacksonville Center
07:00PM 29.9828 -84.9406 137° Southeast 467 537 39,000  Level Jacksonville Center
07:01PM 29.8883 -84.8356 136° Southeast 467 537 39,000  Level Jacksonville Center
07:02PM 29.7939 -84.7283 135° Southeast 472 543 39,000  Level Jacksonville Center
07:03PM 29.6972 -84.6236 137° Southeast 472 543 39,000  Level Jacksonville Center
07:04PM 29.6028 -84.5192 136° Southeast 472 543 39,000  Level Jacksonville Center
07:05PM 29.5183 -84.4247 136° Southeast 472 543 39,000  Level Jacksonville Center
07:06PM 29.4233 -84.3208 136° Southeast 472 543 39,000  Level Jacksonville Center
07:07PM 29.3244 -84.2169 138° Southeast 472 543 39,000  Level Jacksonville Center
07:08PM 29.2294 -84.1133 136° Southeast 472 543 39,000  Level Jacksonville Center
07:09PM 29.1322 -84.0097 137° Southeast 472 543 39,000  Level Jacksonville Center
07:10PM 29.0372 -83.9042 136° Southeast 472 543 39,000  Level Jacksonville Center
07:11PM 28.9397 -83.8014 137° Southeast 477 549 39,000  Level Jacksonville Center
07:12PM 28.8697 -83.6703 121° Southeast 477 549 39,000  Level Jacksonville Center
07:13PM 28.8036 -83.5369 119° Southeast 477 549 39,000  Level Jacksonville Center
07:14PM 28.7375 -83.4017 119° Southeast 482 555 39,000  Level Jacksonville Center
07:15PM 28.6439 -83.2900 134° Southeast 489 563 39,000  Level Jacksonville Center
07:16PM 28.5378 -83.2044 145° Southeast 474 545 39,000  Level Jacksonville Center
07:17PM 28.4294 -83.1217 146° Southeast 474 545 39,000  Level Jacksonville Center
07:19PM 28.2817 -83.0039 145° Southeast 462 532 39,000  Level Miami Center
07:20PM 28.1747 -82.9203 145° Southeast 467 537 39,000  Level Miami Center
07:21PM 28.0700 -82.8347 144° Southeast 467 537 39,000  Level Miami Center
07:22PM 27.9547 -82.7467 146° Southeast 467 537 39,000  Level Miami Center
07:23PM 27.8378 -82.6958 159° South 454 522 39,000  Level Miami Center
07:24PM 27.7183 -82.6547 163° South 448 516 39,000  Level Miami Center
07:25PM 27.5994 -82.6089 161° South 448 516 39,000  Level Miami Center
07:26PM 27.4931 -82.5497 154° Southeast 460 529 39,000 -780 Level Miami Center
07:27PM 27.3883 -82.4581 142° Southeast 471 542 37,500 -1,920 Descending Miami Center
07:28PM 27.2711 -82.3567 142° Southeast 491 565 35,200 -2,340 Descending Miami Center
07:29PM 27.1703 -82.2656 141° Southeast 486 559 32,900 -2,520 Descending Miami Center
07:30PM 27.0711 -82.1792 142° Southeast 492 566 30,200 -2,580 Descending Miami Center
07:31PM 26.9583 -82.0692 139° Southeast 492 566 27,800 -1,980 Descending Miami Center
07:32PM 26.8575 -81.9669 138° Southeast 492 566 26,300 -1,500 Descending Miami Center
07:33PM 26.7608 -81.8653 137° Southeast 486 559 24,800 -1,500 Descending Miami Center
07:34PM 26.6683 -81.7658 136° Southeast 479 551 23,300 -1,500 Descending Miami Center
07:35PM 26.5772 -81.6761 139° Southeast 462 532 21,800 -1,440 Descending Miami Center
07:36PM 26.4947 -81.5869 136° Southeast 456 525 20,500 -1,440 Descending Miami Center
07:37PM 26.4078 -81.4956 137° Southeast 445 512 19,000 -1,680 Descending Miami Center
07:38PM 26.3208 -81.4039 137° Southeast 439 505 17,200 -1,800 Descending Miami Center
07:39PM 26.2358 -81.3150 137° Southeast 432 497 15,400 -1,800 Descending Miami Center
07:40PM 26.1550 -81.2311 137° Southeast 418 481 13,600 -1,800 Descending Miami Center
07:40PM 26.0981 -81.1803 141° Southeast 392 451 12,500 -1,740 Descending Miami Center
07:41PM 26.0739 -81.1494 131° Southeast 406 467 11,900 -1,260 Descending Miami Center
07:42PM 25.9986 -81.0753 138° Southeast 388 447 10,800 -960 Descending Miami Center
07:43PM 25.9317 -81.0081 138° Southeast 355 409 10,000 -1,020 Descending Miami Center
07:44PM 25.9050 -80.9172 108° East 295 339 8,900 -1,200 Descending Miami Center
07:45PM 25.9008 -80.8361 93° East 277 319 7,600 -1,440 Descending Miami Center
07:46PM 25.8950 -80.7483 94° East 277 319 6,000 -1,500 Descending Miami Center
07:47PM 25.8889 -80.6603 94° East 283 326 4,700 -1,320 Descending Miami Center
07:47PM 25.8836 -80.6256 100° East 278 320 4,300 -1,200 Descending Miami Center
07:48PM 25.8831 -80.5678 91° East 278 320 3,500 -840 Descending Miami Center
07:49PM 25.8786 -80.4914 94° East 262 302 2,900 -420 Descending Miami Center
07:49PM 25.8747 -80.4775 107° East 215 247 3,000 -300 Climbing Miami Center
07:50PM 25.8675 -80.4333 100° East 227 261 2,600 -720 Descending Miami Center
07:50PM 25.8572 -80.4261 148° Southeast 177 204 2,300 -1,080 Descending Miami Center